Time,TemperatureF,DewpointF,PressureIn,WindDirection,WindDirectionDegrees,WindSpeedMPH,WindSpeedGustMPH,Humidity,HourlyPrecipIn,Conditions,Clouds,dailyrainin,SolarRadiationWatts/m^2,SoftwareType,DateUTC
2013-07-08 00:01:00,73.0,53.0,-100.00,East,85,7.0,15.0,49,0.00,,,0.00,0.000000,,2013-07-08 06:01:00,
2013-07-08 00:11:00,73.0,53.0,-100.00,East,85,7.0,15.0,49,0.00,,,0.00,0.000000,,2013-07-08 06:11:00,
2013-07-08 00:22:00,73.0,53.0,-100.00,East,85,7.0,15.0,49,0.00,,,0.00,0.000000,,2013-07-08 06:22:00,
2013-07-08 00:30:00,69.0,51.0,-100.00,NW,311,11.0,15.0,53,0.00,,,0.00,0.000000,,2013-07-08 06:30:00,
2013-07-08 00:53:00,69.0,51.0,-100.00,NW,311,11.0,15.0,53,0.00,,,0.00,0.000000,,2013-07-08 06:53:00,
2013-07-08 01:02:00,69.0,51.0,-100.00,NW,311,11.0,15.0,53,0.00,,,0.00,0.000000,,2013-07-08 07:02:00,
2013-07-08 01:11:00,69.0,51.0,-100.00,NW,311,11.0,15.0,53,0.00,,,0.00,0.000000,,2013-07-08 07:11:00,
2013-07-08 01:22:00,69.0,51.0,-100.00,NW,311,11.0,15.0,53,0.00,,,0.00,0.000000,,2013-07-08 07:22:00,
2013-07-08 01:30:00,66.0,52.0,-100.00,WNW,299,7.0,17.0,61,0.00,,,0.00,0.000000,,2013-07-08 07:30:00,
2013-07-08 02:02:00,66.0,52.0,-100.00,WNW,299,7.0,17.0,61,0.00,,,0.00,0.000000,,2013-07-08 08:02:00,
2013-07-08 02:11:00,66.0,52.0,-100.00,WNW,299,7.0,17.0,61,0.00,,,0.00,0.000000,,2013-07-08 08:11:00,
2013-07-08 02:22:00,66.0,52.0,-100.00,WNW,299,7.0,17.0,61,0.00,,,0.00,0.000000,,2013-07-08 08:22:00,
2013-07-08 02:30:00,66.0,53.0,-100.00,WNW,289,4.0,16.0,64,0.00,,,0.00,0.000000,,2013-07-08 08:30:00,
2013-07-08 02:53:00,66.0,53.0,-100.00,WNW,289,4.0,16.0,64,0.00,,,0.00,0.000000,,2013-07-08 08:53:00,
2013-07-08 03:01:00,66.0,53.0,-100.00,WNW,289,4.0,16.0,64,0.00,,,0.00,0.000000,,2013-07-08 09:01:00,
2013-07-08 03:11:00,66.0,53.0,-100.00,WNW,289,4.0,16.0,64,0.00,,,0.00,0.000000,,2013-07-08 09:11:00,
2013-07-08 03:21:00,66.0,53.0,-100.00,WNW,289,4.0,16.0,64,0.00,,,0.00,0.000000,,2013-07-08 09:21:00,
2013-07-08 03:30:00,62.0,56.0,-100.00,SSW,205,5.0,11.0,81,0.06,,,0.06,0.000000,,2013-07-08 09:30:00,
2013-07-08 03:53:00,62.0,56.0,-100.00,SSW,205,5.0,11.0,81,0.06,,,0.06,0.000000,,2013-07-08 09:53:00,
2013-07-08 04:01:00,62.0,56.0,-100.00,SSW,205,5.0,11.0,81,0.06,,,0.06,0.000000,,2013-07-08 10:01:00,
2013-07-08 04:11:00,62.0,56.0,-100.00,SSW,205,5.0,11.0,81,0.06,,,0.06,0.000000,,2013-07-08 10:11:00,
2013-07-08 04:22:00,62.0,56.0,-100.00,SSW,205,5.0,11.0,81,0.06,,,0.06,0.000000,,2013-07-08 10:22:00,
2013-07-08 04:30:00,61.0,58.0,-100.00,NW,312,2.0,8.0,91,0.01,,,0.07,0.000000,,2013-07-08 10:30:00,
2013-07-08 04:53:00,61.0,58.0,-100.00,NW,312,2.0,8.0,91,0.01,,,0.07,0.000000,,2013-07-08 10:53:00,
2013-07-08 05:02:00,61.0,58.0,-100.00,NW,312,2.0,8.0,91,0.01,,,0.07,0.000000,,2013-07-08 11:02:00,
2013-07-08 05:11:00,61.0,58.0,-100.00,NW,312,2.0,8.0,91,0.01,,,0.07,0.000000,,2013-07-08 11:11:00,
2013-07-08 05:22:00,61.0,58.0,-100.00,NW,312,2.0,8.0,91,0.01,,,0.07,0.000000,,2013-07-08 11:22:00,
2013-07-08 05:30:00,60.0,58.0,-100.00,West,264,5.0,7.0,92,0.00,,,0.07,0.000000,,2013-07-08 11:30:00,
2013-07-08 05:53:00,60.0,58.0,-100.00,West,264,5.0,7.0,92,0.00,,,0.07,0.000000,,2013-07-08 11:53:00,
2013-07-08 06:01:00,60.0,58.0,-100.00,West,264,5.0,7.0,92,0.00,,,0.07,0.000000,,2013-07-08 12:01:00,
2013-07-08 06:11:00,60.0,58.0,-100.00,West,264,5.0,7.0,92,0.00,,,0.07,0.000000,,2013-07-08 12:11:00,
2013-07-08 06:22:00,60.0,58.0,-100.00,West,264,5.0,7.0,92,0.00,,,0.07,0.000000,,2013-07-08 12:22:00,
2013-07-08 06:30:00,60.0,58.0,-100.00,SW,222,4.0,7.0,92,0.00,,,0.07,8.000000,,2013-07-08 12:30:00,
2013-07-08 07:01:00,60.0,58.0,-100.00,SW,222,4.0,7.0,92,0.00,,,0.07,8.000000,,2013-07-08 13:01:00,
2013-07-08 07:11:00,60.0,58.0,-100.00,SW,222,4.0,7.0,92,0.00,,,0.07,8.000000,,2013-07-08 13:11:00,
2013-07-08 07:22:00,60.0,58.0,-100.00,SW,222,4.0,7.0,92,0.00,,,0.07,8.000000,,2013-07-08 13:22:00,
2013-07-08 07:30:00,63.0,61.0,-100.00,NW,304,3.0,6.0,92,0.00,,,0.07,67.000000,,2013-07-08 13:30:00,
2013-07-08 07:53:00,63.0,61.0,-100.00,NW,304,3.0,6.0,92,0.00,,,0.07,67.000000,,2013-07-08 13:53:00,
2013-07-08 08:02:00,63.0,61.0,-100.00,NW,304,3.0,6.0,92,0.00,,,0.07,67.000000,,2013-07-08 14:02:00,
2013-07-08 08:12:00,63.0,61.0,-100.00,NW,304,3.0,6.0,92,0.00,,,0.07,67.000000,,2013-07-08 14:12:00,
2013-07-08 08:22:00,63.0,61.0,-100.00,NW,304,3.0,6.0,92,0.00,,,0.07,67.000000,,2013-07-08 14:22:00,
2013-07-08 08:30:00,67.0,61.0,-100.00,West,262,5.0,9.0,81,0.00,,,0.07,338.000000,,2013-07-08 14:30:00,
2013-07-08 09:01:00,67.0,61.0,-100.00,West,262,5.0,9.0,81,0.00,,,0.07,338.000000,,2013-07-08 15:01:00,
2013-07-08 09:11:00,67.0,61.0,-100.00,West,262,5.0,9.0,81,0.00,,,0.07,338.000000,,2013-07-08 15:11:00,
2013-07-08 09:22:00,67.0,61.0,-100.00,West,262,5.0,9.0,81,0.00,,,0.07,338.000000,,2013-07-08 15:22:00,
2013-07-08 09:30:00,68.0,59.0,-100.00,WNW,297,9.0,20.0,72,0.01,,,0.08,368.000000,,2013-07-08 15:30:00,
2013-07-08 09:53:00,68.0,59.0,-100.00,WNW,297,9.0,20.0,72,0.01,,,0.08,368.000000,,2013-07-08 15:53:00,
2013-07-08 10:01:00,68.0,59.0,-100.00,WNW,297,9.0,20.0,72,0.01,,,0.08,368.000000,,2013-07-08 16:01:00,
2013-07-08 10:11:00,68.0,59.0,-100.00,WNW,297,9.0,20.0,72,0.01,,,0.08,368.000000,,2013-07-08 16:11:00,
2013-07-08 10:22:00,68.0,59.0,-100.00,WNW,297,9.0,20.0,72,0.01,,,0.08,368.000000,,2013-07-08 16:22:00,
2013-07-08 11:04:00,70.0,55.0,-100.00,West,265,8.0,18.0,60,0.00,,,0.08,700.000000,,2013-07-08 17:04:00,
2013-07-08 11:13:00,70.0,55.0,-100.00,West,265,8.0,18.0,60,0.00,,,0.08,700.000000,,2013-07-08 17:13:00,
2013-07-08 11:30:00,72.0,53.0,-100.00,East,89,12.0,17.0,52,0.00,,,0.08,811.000000,,2013-07-08 17:30:00,
2013-07-08 12:03:00,72.0,53.0,-100.00,East,89,12.0,17.0,52,0.00,,,0.08,811.000000,,2013-07-08 18:03:00,
2013-07-08 12:17:00,72.0,53.0,-100.00,East,89,12.0,17.0,52,0.00,,,0.08,811.000000,,2013-07-08 18:17:00,
2013-07-08 12:30:00,74.0,54.0,-100.00,NE,56,9.0,15.0,50,0.00,,,0.08,808.000000,,2013-07-08 18:30:00,
2013-07-08 13:00:00,74.0,54.0,-100.00,NE,56,9.0,15.0,50,0.00,,,0.08,808.000000,,2013-07-08 19:00:00,
2013-07-08 14:15:00,74.0,55.0,-100.00,East,91,7.0,13.0,51,0.00,,,0.08,759.000000,,2013-07-08 20:15:00,
2013-07-08 14:24:00,74.0,55.0,-100.00,East,91,7.0,13.0,51,0.00,,,0.08,759.000000,,2013-07-08 20:24:00,
2013-07-08 16:06:00,83.0,54.0,-100.00,SE,131,4.0,10.0,37,0.00,,,0.10,1064.000000,,2013-07-08 22:06:00,
2013-07-08 16:16:00,83.0,54.0,-100.00,SE,131,4.0,10.0,37,0.00,,,0.10,1064.000000,,2013-07-08 22:16:00,
2013-07-08 16:24:00,83.0,54.0,-100.00,SE,131,4.0,10.0,37,0.00,,,0.10,1064.000000,,2013-07-08 22:24:00,
2013-07-08 17:07:00,84.0,50.0,-100.00,SW,225,6.0,12.0,31,0.00,,,0.10,875.000000,,2013-07-08 23:07:00,
2013-07-08 17:15:00,84.0,50.0,-100.00,SW,225,6.0,12.0,31,0.00,,,0.10,875.000000,,2013-07-08 23:15:00,
2013-07-08 17:25:00,84.0,50.0,-100.00,SW,225,6.0,12.0,31,0.00,,,0.10,875.000000,,2013-07-08 23:25:00,
2013-07-08 18:06:00,85.0,45.0,-100.00,West,268,13.0,30.0,25,0.00,,,0.10,696.000000,,2013-07-09 00:06:00,
2013-07-08 18:16:00,85.0,45.0,-100.00,West,268,13.0,30.0,25,0.00,,,0.10,696.000000,,2013-07-09 00:16:00,
2013-07-08 19:07:00,84.0,41.0,-100.00,West,272,13.0,27.0,22,0.00,,,0.10,617.000000,,2013-07-09 01:07:00,
2013-07-08 19:15:00,84.0,41.0,-100.00,West,272,13.0,27.0,22,0.00,,,0.10,617.000000,,2013-07-09 01:15:00,
2013-07-08 20:15:00,80.0,40.0,-100.00,WNW,302,9.0,23.0,24,0.00,,,0.10,417.000000,,2013-07-09 02:15:00,
2013-07-08 20:30:00,67.0,44.0,-100.00,ENE,63,14.0,22.0,43,0.00,,,0.10,170.000000,,2013-07-09 02:30:00,
2013-07-08 21:25:00,67.0,44.0,-100.00,ENE,63,14.0,22.0,43,0.00,,,0.10,170.000000,,2013-07-09 03:25:00,
2013-07-08 21:30:00,63.0,50.0,-100.00,NE,54,10.0,21.0,62,0.00,,,0.10,14.000000,,2013-07-09 03:30:00,
2013-07-08 22:02:00,63.0,50.0,-100.00,NE,54,10.0,21.0,62,0.00,,,0.10,14.000000,,2013-07-09 04:02:00,
2013-07-08 22:11:00,63.0,50.0,-100.00,NE,54,10.0,21.0,62,0.00,,,0.10,14.000000,,2013-07-09 04:11:00,
2013-07-08 22:22:00,63.0,50.0,-100.00,NE,54,10.0,21.0,62,0.00,,,0.10,14.000000,,2013-07-09 04:22:00,
2013-07-08 22:30:00,61.0,47.0,-100.00,NNE,13,3.0,15.0,60,0.00,,,0.10,0.000000,,2013-07-09 04:30:00,
2013-07-08 22:53:00,61.0,47.0,-100.00,NNE,13,3.0,15.0,60,0.00,,,0.10,0.000000,,2013-07-09 04:53:00,
2013-07-08 23:02:00,61.0,47.0,-100.00,NNE,13,3.0,15.0,60,0.00,,,0.10,0.000000,,2013-07-09 05:02:00,
2013-07-08 23:11:00,61.0,47.0,-100.00,NNE,13,3.0,15.0,60,0.00,,,0.10,0.000000,,2013-07-09 05:11:00,
2013-07-08 23:22:00,61.0,47.0,-100.00,NNE,13,3.0,15.0,60,0.00,,,0.10,0.000000,,2013-07-09 05:22:00,
2013-07-08 23:30:00,58.0,48.0,-100.00,NE,44,3.0,7.0,69,0.00,,,0.10,0.000000,,2013-07-09 05:30:00,
2013-07-08 23:52:00,58.0,48.0,-100.00,NE,44,3.0,7.0,69,0.00,,,0.10,0.000000,,2013-07-09 05:52:00,